Time;durP1;ratioP1;P1;durP2;ratioP2;P2;SDS_P1;SDS_P2;PMS_P1;PMS_P2;Temp;Humidity;BMP_temperature;BMP_pressure;BME280_temperature;BME280_humidity;BME280_pressure;Samples;Min_cycle;Max_cycle;Signal;HPM_P1;HPM_P2
2023/04/03 00:01:24;;;;;;;0.10;0.10;;;4.90;99.90;;;;;;5037269;28;20209;-80
2023/04/03 00:03:56;;;;;;;0.10;0.10;;;4.90;99.90;;;;;;5082460;27;20599;-80
2023/04/03 00:06:23;;;;;;;0.10;0.10;;;4.90;99.90;;;;;;5062628;28;20254;-79
2023/04/03 00:08:49;;;;;;;0.10;0.10;;;4.90;99.90;;;;;;5056216;28;20294;-79
2023/04/03 00:11:15;;;;;;;0.10;0.10;;;4.90;99.90;;;;;;5079534;28;20862;-80
2023/04/03 00:13:40;;;;;;;0.00;0.00;;;4.90;99.90;;;;;;5080559;28;20189;-80
2023/04/03 00:16:08;;;;;;;0.10;0.10;;;4.90;99.90;;;;;;5079698;28;20185;-80
2023/04/03 00:18:34;;;;;;;0.10;0.10;;;4.90;99.90;;;;;;5081729;28;20240;-80
2023/04/03 00:21:00;;;;;;;0.10;0.10;;;4.90;99.90;;;;;;5077896;28;20724;-80
2023/04/03 00:23:26;;;;;;;0.10;0.10;;;4.90;99.90;;;;;;5079065;28;20212;-79
2023/04/03 00:25:52;;;;;;;0.10;0.10;;;4.90;99.90;;;;;;5075304;28;20176;-80
2023/04/03 00:28:17;;;;;;;0.10;0.10;;;4.90;99.90;;;;;;5077924;28;20185;-79
2023/04/03 00:30:42;;;;;;;0.10;0.10;;;4.90;99.90;;;;;;5078226;28;20211;-80
2023/04/03 00:33:12;;;;;;;0.10;0.10;;;5.00;99.90;;;;;;5079990;28;20230;-79
2023/04/03 00:35:38;;;;;;;0.00;0.00;;;4.90;99.90;;;;;;5074679;28;20190;-80
2023/04/03 00:38:03;;;;;;;0.10;0.10;;;4.90;99.90;;;;;;5079753;28;20184;-79
2023/04/03 00:40:35;;;;;;;0.10;0.10;;;4.90;99.90;;;;;;5075880;28;20188;-79
2023/04/03 00:43:00;;;;;;;0.00;0.00;;;5.00;99.90;;;;;;5077907;28;20216;-80
2023/04/03 00:45:28;;;;;;;0.10;0.10;;;5.00;99.90;;;;;;5077516;28;20185;-79
2023/04/03 00:47:55;;;;;;;0.10;0.10;;;5.00;99.90;;;;;;5077173;28;20588;-80
2023/04/03 00:50:21;;;;;;;0.10;0.10;;;5.00;99.90;;;;;;5077623;28;20192;-79
2023/04/03 00:52:48;;;;;;;0.10;0.10;;;5.00;99.90;;;;;;5079215;28;20204;-80
2023/04/03 00:55:15;;;;;;;0.10;0.10;;;5.00;99.90;;;;;;5079567;28;20204;-80
2023/04/03 00:57:41;;;;;;;0.10;0.10;;;5.10;99.90;;;;;;5076704;28;20189;-79
2023/04/03 01:00:12;;;;;;;0.10;0.10;;;5.10;99.90;;;;;;5079874;28;20196;-80
2023/04/03 01:02:40;;;;;;;0.00;0.00;;;5.10;99.90;;;;;;5073174;28;20333;-80
2023/04/03 01:05:06;;;;;;;0.10;0.10;;;5.20;99.90;;;;;;5074902;28;20200;-79
2023/04/03 01:07:33;;;;;;;0.10;0.10;;;5.30;99.90;;;;;;5095048;28;20187;-80
2023/04/03 01:10:04;;;;;;;0.10;0.10;;;5.20;99.90;;;;;;5075633;28;20273;-80
2023/04/03 01:12:41;;;;;;;0.10;0.10;;;5.20;99.90;;;;;;5077426;28;20212;-80
2023/04/03 01:15:18;;;;;;;0.00;0.00;;;5.20;99.90;;;;;;5065055;28;20194;-80
2023/04/03 01:17:52;;;;;;;0.10;0.10;;;5.20;99.90;;;;;;5064956;28;20188;-79
2023/04/03 01:20:31;;;;;;;0.10;0.10;;;5.20;99.90;;;;;;5061358;28;20194;-79
2023/04/03 01:23:06;;;;;;;0.10;0.10;;;5.20;99.90;;;;;;5060438;28;20214;-80
2023/04/03 01:25:32;;;;;;;0.10;0.10;;;5.30;99.90;;;;;;5063852;28;20646;-79
2023/04/03 01:27:58;;;;;;;0.10;0.10;;;5.30;99.90;;;;;;5058220;28;20189;-80
2023/04/03 01:30:30;;;;;;;0.10;0.10;;;5.30;99.90;;;;;;5063284;28;20193;-80
2023/04/03 01:32:56;;;;;;;0.00;0.00;;;5.20;99.90;;;;;;5064108;28;20690;-80
2023/04/03 01:35:21;;;;;;;0.10;0.10;;;5.30;99.90;;;;;;5064671;28;20186;-79
2023/04/03 01:37:47;;;;;;;0.10;0.10;;;5.30;99.90;;;;;;5060916;28;20204;-80
2023/04/03 01:40:12;;;;;;;0.10;0.10;;;5.30;99.90;;;;;;5063923;28;20240;-79
2023/04/03 01:42:38;;;;;;;0.10;0.10;;;5.30;99.90;;;;;;5066888;28;20262;-79
2023/04/03 01:45:04;;;;;;;0.10;0.10;;;5.20;99.90;;;;;;5062672;28;20190;-79
2023/04/03 01:47:30;;;;;;;0.00;0.00;;;5.20;99.90;;;;;;5056969;28;20186;-80
2023/04/03 01:49:55;;;;;;;0.10;0.10;;;5.30;99.90;;;;;;5063024;28;20194;-80
2023/04/03 01:52:21;;;;;;;0.10;0.10;;;5.30;99.90;;;;;;5060877;28;20265;-79
2023/04/03 01:54:46;;;;;;;0.10;0.10;;;5.30;99.90;;;;;;5062593;28;20198;-80
2023/04/03 01:57:13;;;;;;;0.00;0.00;;;5.30;99.90;;;;;;5064010;28;20186;-79
2023/04/03 01:59:39;;;;;;;0.10;0.10;;;5.30;99.90;;;;;;5064239;28;20189;-80
2023/04/03 02:02:04;;;;;;;0.10;0.10;;;5.40;99.90;;;;;;5064366;28;20209;-80
2023/04/03 02:04:30;;;;;;;0.07;0.07;;;5.40;99.90;;;;;;5063871;28;20623;-80
2023/04/03 02:06:55;;;;;;;0.10;0.10;;;5.40;99.90;;;;;;5063903;28;20581;-80
2023/04/03 02:09:21;;;;;;;0.10;0.10;;;5.30;99.90;;;;;;5057381;28;20181;-80
2023/04/03 02:11:46;;;;;;;0.00;0.00;;;5.30;99.90;;;;;;5065036;28;20718;-79
2023/04/03 02:14:12;;;;;;;0.10;0.10;;;5.30;99.90;;;;;;5061850;28;20267;-80
2023/04/03 02:16:38;;;;;;;0.00;0.00;;;5.30;99.90;;;;;;5064271;28;20264;-79
2023/04/03 02:19:03;;;;;;;0.00;0.00;;;5.20;99.90;;;;;;5065197;28;20189;-80
2023/04/03 02:21:29;;;;;;;0.03;0.03;;;5.20;99.90;;;;;;5063861;28;20209;-80
2023/04/03 02:23:54;;;;;;;0.10;0.10;;;5.20;99.90;;;;;;5065905;28;20210;-80
2023/04/03 02:26:20;;;;;;;0.00;0.00;;;5.20;99.90;;;;;;5060339;28;20185;-80
2023/04/03 02:28:46;;;;;;;0.10;0.10;;;5.20;99.90;;;;;;5062329;28;20177;-80
2023/04/03 02:31:12;;;;;;;0.10;0.10;;;5.20;99.90;;;;;;5059098;28;20210;-80
2023/04/03 02:33:38;;;;;;;0.10;0.10;;;5.10;99.90;;;;;;5057430;28;20185;-79
2023/04/03 02:36:05;;;;;;;0.10;0.10;;;5.10;99.90;;;;;;5063985;28;20188;-80
2023/04/03 02:38:31;;;;;;;0.00;0.00;;;5.10;99.90;;;;;;5059936;28;20181;-79
2023/04/03 02:41:05;;;;;;;0.10;0.10;;;5.10;99.90;;;;;;5066608;28;20220;-80
2023/04/03 02:43:31;;;;;;;0.10;0.10;;;5.10;99.90;;;;;;5064657;28;20242;-80
2023/04/03 02:45:56;;;;;;;0.00;0.00;;;5.10;99.90;;;;;;5063174;28;20830;-80
2023/04/03 02:48:23;;;;;;;0.10;0.10;;;5.10;99.90;;;;;;5062860;28;20216;-80
2023/04/03 02:50:48;;;;;;;0.10;0.10;;;5.10;99.90;;;;;;5061099;28;20207;-80
2023/04/03 02:53:15;;;;;;;0.10;0.10;;;5.10;99.90;;;;;;5058490;28;20188;-80
2023/04/03 02:55:40;;;;;;;0.10;0.10;;;5.10;99.90;;;;;;5060180;28;20177;-80
2023/04/03 02:58:06;;;;;;;0.10;0.10;;;5.10;99.90;;;;;;5061650;28;20193;-80
2023/04/03 03:00:32;;;;;;;0.10;0.10;;;5.10;99.90;;;;;;5058961;28;20185;-80
2023/04/03 03:02:57;;;;;;;0.10;0.10;;;5.10;99.90;;;;;;5060706;28;20208;-79
2023/04/03 03:05:23;;;;;;;0.10;0.10;;;5.10;99.90;;;;;;5058852;28;20208;-80
2023/04/03 03:07:48;;;;;;;0.10;0.10;;;5.10;99.90;;;;;;5063851;28;20618;-80
2023/04/03 03:10:14;;;;;;;0.10;0.10;;;5.00;99.90;;;;;;5063438;28;20177;-80
2023/04/03 03:12:40;;;;;;;0.10;0.10;;;5.10;99.90;;;;;;5063355;28;20255;-80
2023/04/03 03:15:07;;;;;;;0.10;0.10;;;5.10;99.90;;;;;;5059592;28;20191;-80
2023/04/03 03:17:32;;;;;;;0.10;0.10;;;5.10;99.90;;;;;;5066339;28;20223;-80
2023/04/03 03:19:58;;;;;;;0.10;0.10;;;5.10;99.90;;;;;;5065140;28;20209;-79
2023/04/03 03:22:24;;;;;;;0.10;0.10;;;5.00;99.90;;;;;;5063455;28;20226;-80
2023/04/03 03:24:49;;;;;;;0.10;0.10;;;5.00;99.90;;;;;;5063199;28;20185;-80
2023/04/03 03:27:15;;;;;;;0.03;0.03;;;5.00;99.90;;;;;;5061622;28;20223;-81
2023/04/03 03:29:42;;;;;;;0.10;0.10;;;5.00;99.90;;;;;;5062448;28;20177;-80
2023/04/03 03:32:07;;;;;;;0.00;0.00;;;4.90;99.90;;;;;;5064782;28;20213;-80
2023/04/03 03:34:33;;;;;;;0.10;0.10;;;4.80;99.90;;;;;;5065774;28;20682;-80
2023/04/03 03:36:59;;;;;;;0.10;0.10;;;4.90;99.90;;;;;;5060335;28;20208;-80
2023/04/03 03:39:24;;;;;;;0.10;0.10;;;4.80;99.90;;;;;;5062294;28;20291;-80
2023/04/03 03:41:50;;;;;;;0.00;0.00;;;4.80;99.90;;;;;;5063041;28;20258;-80
2023/04/03 03:44:15;;;;;;;0.00;0.00;;;4.80;99.90;;;;;;5060020;28;20681;-79
2023/04/03 03:46:41;;;;;;;0.10;0.10;;;4.70;99.90;;;;;;5063005;28;20189;-80
2023/04/03 03:49:07;;;;;;;0.10;0.10;;;4.70;99.90;;;;;;5060703;28;20180;-79
2023/04/03 03:51:32;;;;;;;0.10;0.10;;;4.70;99.90;;;;;;5063024;28;20206;-80
2023/04/03 03:53:58;;;;;;;0.00;0.00;;;4.60;99.90;;;;;;5062769;28;20260;-79
2023/04/03 03:56:23;;;;;;;0.10;0.10;;;4.60;99.90;;;;;;5061497;28;20234;-80
2023/04/03 03:58:49;;;;;;;0.00;0.00;;;4.60;99.90;;;;;;5063802;28;20193;-80
2023/04/03 04:01:16;;;;;;;0.10;0.10;;;4.50;99.90;;;;;;5061484;28;20209;-80
2023/04/03 04:03:42;;;;;;;25.93;22.07;;;4.40;99.90;;;;;;5059144;28;20209;-80
2023/04/03 04:06:07;;;;;;;0.10;0.10;;;4.40;99.90;;;;;;5059816;28;20181;-80
2023/04/03 04:08:33;;;;;;;0.00;0.00;;;4.30;99.90;;;;;;5060303;28;20185;-80
2023/04/03 04:10:58;;;;;;;0.10;0.10;;;4.30;99.90;;;;;;5062793;28;20209;-81
2023/04/03 04:13:24;;;;;;;0.10;0.10;;;4.30;99.90;;;;;;5060892;28;20274;-80
2023/04/03 04:15:50;;;;;;;0.10;0.10;;;4.30;99.90;;;;;;5055882;28;20856;-80
2023/04/03 04:18:15;;;;;;;0.00;0.00;;;4.30;99.90;;;;;;5061577;28;20177;-80
2023/04/03 04:20:41;;;;;;;0.03;0.03;;;4.20;99.90;;;;;;5056515;28;20185;-80
2023/04/03 04:23:08;;;;;;;0.00;0.00;;;4.20;99.90;;;;;;5060379;28;20212;-80
2023/04/03 04:25:34;;;;;;;0.10;0.10;;;4.10;99.90;;;;;;5057724;28;20192;-80
2023/04/03 04:27:59;;;;;;;0.00;0.00;;;4.10;99.90;;;;;;5062011;28;20189;-80
2023/04/03 04:30:26;;;;;;;0.10;0.10;;;4.10;99.90;;;;;;5059283;28;20189;-80
2023/04/03 04:32:51;;;;;;;0.10;0.10;;;4.00;99.90;;;;;;5060806;28;20222;-80
2023/04/03 04:35:17;;;;;;;0.00;0.00;;;4.00;99.90;;;;;;5059094;28;20520;-80
2023/04/03 04:37:42;;;;;;;0.10;0.10;;;3.90;99.90;;;;;;5062536;28;20276;-80
2023/04/03 04:40:08;;;;;;;0.10;0.10;;;3.80;99.90;;;;;;5058430;28;20678;-82
2023/04/03 04:42:34;;;;;;;0.00;0.00;;;3.80;99.90;;;;;;5064432;28;20232;-81
2023/04/03 04:44:59;;;;;;;0.10;0.10;;;3.70;99.90;;;;;;5063196;28;20190;-81
2023/04/03 04:47:25;;;;;;;0.00;0.00;;;3.60;99.90;;;;;;5057792;28;20193;-81
2023/04/03 04:49:50;;;;;;;0.00;0.00;;;3.60;99.90;;;;;;5061030;28;20181;-81
2023/04/03 04:52:16;;;;;;;0.10;0.10;;;3.50;99.90;;;;;;5064560;28;20244;-79
2023/04/03 04:54:42;;;;;;;0.10;0.10;;;3.50;99.90;;;;;;5064577;28;20199;-81
2023/04/03 04:57:07;;;;;;;0.10;0.10;;;3.40;99.90;;;;;;5064912;28;20683;-80
2023/04/03 04:59:33;;;;;;;0.00;0.00;;;3.40;99.90;;;;;;5060056;28;20310;-80
2023/04/03 05:02:01;;;;;;;0.10;0.10;;;3.30;99.90;;;;;;5061223;28;20685;-80
2023/04/03 05:04:27;;;;;;;0.00;0.00;;;3.30;99.90;;;;;;5062044;28;20283;-80
2023/04/03 05:06:52;;;;;;;0.10;0.10;;;3.30;99.90;;;;;;5065479;28;20252;-80
2023/04/03 05:09:19;;;;;;;0.10;0.10;;;3.20;99.90;;;;;;5066047;28;20196;-80
2023/04/03 05:11:45;;;;;;;0.10;0.10;;;3.20;99.90;;;;;;5068784;28;20266;-81
2023/04/03 05:14:11;;;;;;;0.00;0.00;;;3.20;99.90;;;;;;5072638;28;20203;-81
2023/04/03 05:16:37;;;;;;;0.10;0.10;;;3.20;99.90;;;;;;5069005;28;20190;-81
2023/04/03 05:19:03;;;;;;;0.10;0.10;;;3.10;99.90;;;;;;5074260;28;20217;-80
2023/04/03 05:21:31;;;;;;;0.00;0.00;;;3.10;99.90;;;;;;5068654;28;20283;-80
2023/04/03 05:23:58;;;;;;;0.10;0.10;;;3.10;99.90;;;;;;5087637;28;20236;-80
2023/04/03 05:26:25;;;;;;;0.10;0.10;;;3.10;99.90;;;;;;5071248;28;20193;-81
2023/04/03 05:28:51;;;;;;;0.10;0.10;;;3.10;99.90;;;;;;5063139;28;20198;-81
2023/04/03 05:31:16;;;;;;;0.10;0.10;;;3.10;99.90;;;;;;5069102;28;20284;-81
2023/04/03 05:33:42;;;;;;;0.10;0.10;;;3.10;99.90;;;;;;5068783;28;20254;-81
2023/04/03 05:36:08;;;;;;;0.10;0.10;;;3.20;99.90;;;;;;5069113;28;20283;-80
2023/04/03 05:38:33;;;;;;;0.10;0.10;;;3.20;99.90;;;;;;5070046;28;20215;-80
2023/04/03 05:40:59;;;;;;;0.00;0.00;;;3.20;99.90;;;;;;5070684;28;20296;-80
2023/04/03 05:43:25;;;;;;;0.10;0.10;;;3.30;99.90;;;;;;5067965;28;20212;-79
2023/04/03 05:45:51;;;;;;;0.10;0.10;;;3.30;99.90;;;;;;5063434;28;20189;-80
2023/04/03 05:48:17;;;;;;;0.00;0.00;;;3.30;99.90;;;;;;5067580;28;20185;-80
2023/04/03 05:50:43;;;;;;;0.10;0.10;;;3.30;99.90;;;;;;5064564;28;20319;-80
2023/04/03 05:53:22;;;;;;;0.10;0.10;;;3.30;99.90;;;;;;5066806;28;20245;-81
2023/04/03 05:55:47;;;;;;;0.10;0.10;;;3.40;99.90;;;;;;5066112;28;20558;-80
2023/04/03 05:58:13;;;;;;;1.07;1.07;;;3.40;99.90;;;;;;5068957;28;20203;-80
2023/04/03 06:00:39;;;;;;;0.10;0.10;;;3.50;99.90;;;;;;5063676;28;20203;-81
2023/04/03 06:03:06;;;;;;;0.10;0.10;;;3.60;99.90;;;;;;5065534;28;20223;-81
2023/04/03 06:05:31;;;;;;;0.10;0.10;;;3.60;99.90;;;;;;5063071;28;20221;-83
2023/04/03 06:07:57;;;;;;;0.10;0.10;;;3.60;99.90;;;;;;5067236;28;20197;-81
2023/04/03 06:10:23;;;;;;;0.10;0.10;;;3.70;99.90;;;;;;5067266;28;20204;-81
2023/04/03 06:12:51;;;;;;;0.10;0.10;;;3.80;99.90;;;;;;5060830;28;20217;-80
2023/04/03 06:15:17;;;;;;;0.10;0.10;;;3.80;99.90;;;;;;5061320;28;20188;-80
2023/04/03 06:17:42;;;;;;;0.10;0.10;;;3.90;99.90;;;;;;5060810;28;20803;-80
2023/04/03 06:20:09;;;;;;;0.10;0.10;;;4.10;99.90;;;;;;5062978;28;20296;-80
2023/04/03 06:22:35;;;;;;;0.10;0.10;;;4.30;99.90;;;;;;5063947;28;20220;-81
2023/04/03 06:25:00;;;;;;;0.07;0.07;;;4.50;99.90;;;;;;5062249;28;20181;-80
2023/04/03 06:27:26;;;;;;;0.10;0.10;;;4.60;99.90;;;;;;5061096;28;20181;-81
2023/04/03 06:29:52;;;;;;;0.10;0.10;;;4.60;99.90;;;;;;5053957;28;20189;-81
2023/04/03 06:32:18;;;;;;;0.00;0.00;;;4.90;99.90;;;;;;5055192;28;20250;-82
2023/04/03 06:34:44;;;;;;;0.10;0.10;;;5.10;99.90;;;;;;5057355;28;20181;-82
2023/04/03 06:37:32;;;;;;;0.00;0.00;;;5.40;99.90;;;;;;5058637;28;20197;-82
2023/04/03 06:39:57;;;;;;;0.00;0.00;;;5.30;99.90;;;;;;5065366;28;20199;-81
2023/04/03 06:42:23;;;;;;;0.10;0.10;;;5.50;99.90;;;;;;5067095;28;20591;-81
2023/04/03 06:44:49;;;;;;;0.10;0.10;;;5.60;99.90;;;;;;5066680;28;20186;-82
2023/04/03 06:47:16;;;;;;;0.10;0.10;;;5.50;99.90;;;;;;5058427;28;20388;-81
2023/04/03 06:49:42;;;;;;;0.10;0.10;;;5.30;99.90;;;;;;5062241;28;20185;-80
2023/04/03 06:52:09;;;;;;;0.07;0.07;;;5.40;99.90;;;;;;5063070;28;20219;-81
2023/04/03 06:54:35;;;;;;;0.10;0.10;;;5.50;99.90;;;;;;5063641;28;20186;-82
2023/04/03 06:57:01;;;;;;;0.10;0.10;;;5.30;99.90;;;;;;5059859;28;21071;-83
2023/04/03 06:59:27;;;;;;;0.10;0.10;;;5.20;99.90;;;;;;5060083;28;20190;-82
2023/04/03 07:01:52;;;;;;;0.10;0.10;;;5.10;99.90;;;;;;5061695;28;20248;-80
2023/04/03 07:04:20;;;;;;;0.10;0.10;;;5.10;99.90;;;;;;5061837;28;20271;-82
2023/04/03 07:06:46;;;;;;;0.00;0.00;;;5.10;99.90;;;;;;5058459;28;20634;-83
2023/04/03 07:09:13;;;;;;;0.10;0.10;;;5.10;99.90;;;;;;5064091;28;20219;-83
2023/04/03 07:11:38;;;;;;;0.10;0.10;;;5.00;99.90;;;;;;5060228;28;20228;-82
2023/04/03 07:14:04;;;;;;;0.10;0.10;;;5.00;99.90;;;;;;5060492;28;20209;-81
2023/04/03 07:16:32;;;;;;;0.10;0.10;;;5.10;99.90;;;;;;5061634;28;20185;-82
2023/04/03 07:18:58;;;;;;;0.10;0.10;;;5.20;99.90;;;;;;5063051;28;20185;-80
2023/04/03 07:21:24;;;;;;;0.00;0.00;;;5.30;99.90;;;;;;5061383;28;20201;-80
2023/04/03 07:23:49;;;;;;;0.10;0.10;;;5.60;99.90;;;;;;5064845;28;20217;-80
2023/04/03 07:26:15;;;;;;;0.10;0.10;;;5.50;99.90;;;;;;5064327;28;20611;-80
2023/04/03 07:28:41;;;;;;;0.10;0.10;;;5.50;99.90;;;;;;5057099;28;20177;-79
2023/04/03 07:31:13;;;;;;;0.10;0.10;;;5.70;99.90;;;;;;5060797;28;20270;-80
2023/04/03 07:33:39;;;;;;;0.10;0.10;;;5.80;99.90;;;;;;5060418;28;20288;-80
2023/04/03 07:36:07;;;;;;;0.10;0.10;;;5.70;99.90;;;;;;5059692;28;20646;-80
2023/04/03 07:38:33;;;;;;;0.10;0.10;;;5.50;99.90;;;;;;5060011;28;21163;-81
2023/04/03 07:40:59;;;;;;;0.10;0.10;;;5.90;99.90;;;;;;5057990;28;20218;-79
2023/04/03 07:43:24;;;;;;;0.10;0.10;;;5.70;99.90;;;;;;5060867;28;20280;-79
2023/04/03 07:45:50;;;;;;;0.10;0.10;;;5.90;99.90;;;;;;5069970;28;20219;-80
2023/04/03 07:48:18;;;;;;;0.10;0.10;;;6.10;99.90;;;;;;5062786;28;20175;-80
2023/04/03 07:50:44;;;;;;;0.00;0.00;;;5.80;99.90;;;;;;5064687;28;20647;-81
2023/04/03 07:53:09;;;;;;;0.10;0.10;;;5.80;99.90;;;;;;5061466;28;20203;-83
2023/04/03 07:55:42;;;;;;;0.10;0.10;;;5.90;99.90;;;;;;5061805;28;20181;-78
2023/04/03 07:58:09;;;;;;;0.10;0.10;;;6.00;99.90;;;;;;5065768;28;20196;-80
2023/04/03 08:00:35;;;;;;;0.10;0.10;;;5.80;99.90;;;;;;5063731;28;20188;-79
2023/04/03 08:03:01;;;;;;;0.10;0.10;;;5.80;99.90;;;;;;5062965;28;20209;-80
2023/04/03 08:05:26;;;;;;;0.10;0.10;;;6.10;99.90;;;;;;5061827;28;20186;-80
2023/04/03 08:07:52;;;;;;;0.00;0.00;;;6.30;99.90;;;;;;5060503;28;20924;-80
2023/04/03 08:10:18;;;;;;;0.30;0.30;;;6.50;99.90;;;;;;5061089;28;21214;-80
2023/04/03 08:12:46;;;;;;;0.10;0.10;;;6.20;99.90;;;;;;5066939;28;20702;-80
2023/04/03 08:15:12;;;;;;;0.10;0.10;;;6.20;99.90;;;;;;5064906;28;20215;-79
2023/04/03 08:17:37;;;;;;;0.00;0.00;;;6.20;99.90;;;;;;5063102;28;20184;-80
2023/04/03 08:20:06;;;;;;;0.23;0.23;;;6.40;99.90;;;;;;5065187;28;20211;-81
2023/04/03 08:22:32;;;;;;;0.10;0.10;;;6.40;99.90;;;;;;5068198;28;20213;-81
2023/04/03 08:24:57;;;;;;;0.10;0.10;;;6.30;99.90;;;;;;5070114;28;20190;-81
2023/04/03 08:27:23;;;;;;;0.10;0.10;;;6.30;99.90;;;;;;5064812;28;20185;-81
2023/04/03 08:29:48;;;;;;;0.10;0.10;;;6.60;99.90;;;;;;5073676;28;20188;-81
2023/04/03 08:32:14;;;;;;;0.10;0.10;;;6.50;99.90;;;;;;5074386;28;20292;-81
2023/04/03 08:34:39;;;;;;;0.10;0.10;;;6.70;99.90;;;;;;5067717;28;20182;-81
2023/04/03 08:37:05;;;;;;;0.10;0.10;;;6.70;99.90;;;;;;5069066;28;20344;-81
2023/04/03 08:39:31;;;;;;;0.10;0.10;;;6.80;99.90;;;;;;5069887;28;20187;-81
2023/04/03 08:42:02;;;;;;;0.10;0.10;;;6.30;99.90;;;;;;5066169;28;20292;-83
2023/04/03 08:44:42;;;;;;;0.00;0.00;;;6.60;99.90;;;;;;5073539;28;20194;-81
2023/04/03 08:47:32;;;;;;;0.00;0.00;;;6.80;99.90;;;;;;5072438;28;20190;-81
2023/04/03 08:50:01;;;;;;;0.10;0.10;;;7.10;99.90;;;;;;5071367;28;20203;-82
2023/04/03 08:52:52;;;;;;;0.10;0.10;;;7.60;99.90;;;;;;5074025;28;20235;-81
2023/04/03 08:55:27;;;;;;;0.10;0.10;;;7.40;99.90;;;;;;5076465;28;20221;-81
2023/04/03 08:58:05;;;;;;;0.10;0.10;;;6.80;99.90;;;;;;5075685;28;20253;-81
2023/04/03 09:00:44;;;;;;;0.10;0.10;;;6.40;99.90;;;;;;5071483;28;20666;-81
2023/04/03 09:03:14;;;;;;;0.00;0.00;;;6.50;99.90;;;;;;5074707;28;20304;-80
2023/04/03 09:05:50;;;;;;;0.10;0.10;;;6.80;99.90;;;;;;5070464;28;20184;-81
2023/04/03 09:08:50;;;;;;;0.10;0.10;;;7.10;99.90;;;;;;5073097;28;20184;-81
2023/04/03 09:11:20;;;;;;;0.10;0.10;;;7.30;99.90;;;;;;5072459;28;20219;-81
2023/04/03 09:14:13;;;;;;;0.10;0.10;;;6.90;99.90;;;;;;5066339;28;20276;-80
2023/04/03 09:17:05;;;;;;;0.10;0.10;;;6.60;99.90;;;;;;5073315;28;20192;-80
2023/04/03 09:19:30;;;;;;;0.07;0.07;;;6.50;99.90;;;;;;5068486;28;20185;-81
2023/04/03 09:21:58;;;;;;;0.10;0.10;;;7.20;99.90;;;;;;5074674;28;20315;-81
2023/04/03 09:24:24;;;;;;;0.10;0.10;;;7.10;99.90;;;;;;5073637;28;20185;-81
2023/04/03 09:27:09;;;;;;;0.00;0.00;;;6.80;99.90;;;;;;5065729;28;20734;-82
2023/04/03 09:29:45;;;;;;;0.00;0.00;;;7.20;99.90;;;;;;5073427;28;20189;-81
2023/04/03 09:32:32;;;;;;;0.07;0.07;;;7.50;99.90;;;;;;5070924;28;20200;-81
2023/04/03 09:35:24;;;;;;;0.10;0.10;;;7.50;99.90;;;;;;5069029;28;20191;-80
2023/04/03 09:37:52;;;;;;;0.10;0.10;;;7.00;99.90;;;;;;5063756;28;20222;-81
2023/04/03 09:40:34;;;;;;;0.10;0.10;;;6.80;99.90;;;;;;5068880;28;20256;-83
2023/04/03 09:43:25;;;;;;;0.10;0.10;;;7.20;99.90;;;;;;5069005;28;20216;-81
2023/04/03 09:45:52;;;;;;;0.10;0.10;;;7.00;99.90;;;;;;5060339;28;21024;-81
2023/04/03 09:48:21;;;;;;;0.00;0.00;;;7.30;99.90;;;;;;5071263;28;20192;-81
2023/04/03 09:50:50;;;;;;;0.10;0.10;;;7.70;99.90;;;;;;5064200;28;20279;-81
2023/04/03 09:53:37;;;;;;;2.13;1.93;;;7.10;99.90;;;;;;5065612;28;20215;-80
2023/04/03 09:56:19;;;;;;;0.20;0.20;;;7.20;99.90;;;;;;5069377;28;20679;-80
2023/04/03 09:58:49;;;;;;;0.00;0.00;;;7.80;99.90;;;;;;5068266;28;20188;-80
2023/04/03 10:01:31;;;;;;;0.10;0.10;;;7.70;99.90;;;;;;5069513;28;20204;-80
2023/04/03 10:04:15;;;;;;;0.10;0.10;;;7.60;99.90;;;;;;5069252;28;20212;-80
2023/04/03 10:06:46;;;;;;;0.10;0.10;;;7.30;99.90;;;;;;5070134;28;20173;-81
2023/04/03 10:09:28;;;;;;;0.10;0.10;;;7.40;99.90;;;;;;5070519;28;20276;-82
2023/04/03 10:12:04;;;;;;;0.10;0.10;;;7.40;99.90;;;;;;5068653;28;20208;-81
2023/04/03 10:14:32;;;;;;;0.10;0.10;;;7.70;99.90;;;;;;5074781;28;20181;-82
2023/04/03 10:17:15;;;;;;;0.00;0.00;;;7.70;99.90;;;;;;5069836;28;20189;-81
2023/04/03 10:19:58;;;;;;;0.10;0.10;;;7.60;99.90;;;;;;5070310;28;20180;-80
2023/04/03 10:23:02;;;;;;;0.10;0.10;;;7.30;99.90;;;;;;5075086;28;20604;-81
2023/04/03 10:26:07;;;;;;;0.10;0.10;;;7.00;99.90;;;;;;5063976;28;20194;-81
2023/04/03 10:28:43;;;;;;;0.10;0.10;;;7.50;99.90;;;;;;5072250;28;20184;-82
2023/04/03 10:31:27;;;;;;;0.10;0.10;;;7.20;99.90;;;;;;5070861;28;20247;-81
2023/04/03 10:34:06;;;;;;;0.10;0.10;;;6.80;99.90;;;;;;5071155;28;20199;-81
2023/04/03 10:36:59;;;;;;;0.10;0.10;;;6.70;99.90;;;;;;5070703;28;20193;-81
2023/04/03 10:39:31;;;;;;;0.10;0.10;;;6.70;99.90;;;;;;5070910;28;20190;-81
2023/04/03 10:42:22;;;;;;;0.00;0.00;;;7.20;99.90;;;;;;5069275;28;20212;-82
2023/04/03 10:45:03;;;;;;;0.10;0.10;;;7.20;99.90;;;;;;5070049;28;20252;-81
2023/04/03 10:47:34;;;;;;;0.10;0.10;;;7.60;99.90;;;;;;5065965;28;20216;-81
2023/04/03 10:50:22;;;;;;;0.10;0.10;;;7.80;99.90;;;;;;5071150;28;20179;-82
2023/04/03 10:52:56;;;;;;;0.10;0.10;;;7.60;99.90;;;;;;5071458;28;20399;-81
2023/04/03 10:55:28;;;;;;;0.10;0.10;;;8.10;99.90;;;;;;5072447;28;20555;-81
2023/04/03 10:57:58;;;;;;;0.10;0.10;;;7.90;99.90;;;;;;5068243;28;20256;-81
2023/04/03 11:00:30;;;;;;;0.10;0.10;;;8.00;99.90;;;;;;5073204;28;20189;-83
2023/04/03 11:03:00;;;;;;;0.10;0.10;;;8.40;99.90;;;;;;5068991;28;20208;-82
2023/04/03 11:05:36;;;;;;;0.07;0.07;;;8.30;99.90;;;;;;5073787;28;20180;-82
2023/04/03 11:08:24;;;;;;;0.10;0.10;;;8.30;99.90;;;;;;5079872;28;20238;-83
2023/04/03 11:10:51;;;;;;;0.10;0.10;;;8.60;99.90;;;;;;5084614;28;20203;-83
2023/04/03 11:13:22;;;;;;;0.10;0.10;;;7.50;99.90;;;;;;5090206;28;20198;-83
2023/04/03 11:15:51;;;;;;;0.10;0.10;;;8.10;99.90;;;;;;5085934;28;20278;-83
2023/04/03 11:18:26;;;;;;;0.00;0.00;;;8.30;99.90;;;;;;5079664;28;20216;-83
2023/04/03 11:21:11;;;;;;;0.10;0.10;;;7.90;99.90;;;;;;5084072;28;20211;-83
2023/04/03 11:23:39;;;;;;;0.10;0.10;;;7.90;99.90;;;;;;5093657;28;20206;-84
2023/04/03 11:26:15;;;;;;;0.10;0.10;;;8.10;99.90;;;;;;5110615;28;20187;-83
2023/04/03 11:28:41;;;;;;;0.10;0.10;;;7.90;99.90;;;;;;5084279;28;20180;-81
2023/04/03 11:31:26;;;;;;;0.10;0.10;;;8.00;99.90;;;;;;5079487;28;20324;-81
2023/04/03 11:33:52;;;;;;;0.10;0.10;;;8.00;99.90;;;;;;5082200;28;20189;-81
2023/04/03 11:36:40;;;;;;;0.10;0.10;;;8.10;99.90;;;;;;5079729;28;20175;-82
2023/04/03 11:39:26;;;;;;;0.10;0.10;;;8.20;99.90;;;;;;5079933;28;20185;-79
2023/04/03 11:41:52;;;;;;;0.10;0.10;;;8.20;99.90;;;;;;5081250;28;20204;-79
2023/04/03 11:44:38;;;;;;;0.10;0.10;;;8.10;99.90;;;;;;5078253;28;20281;-80
2023/04/03 11:47:09;;;;;;;0.10;0.10;;;8.10;99.90;;;;;;5077281;28;20191;-80
2023/04/03 11:49:59;;;;;;;0.10;0.10;;;7.70;99.90;;;;;;5074856;28;20217;-79
2023/04/03 11:52:40;;;;;;;0.13;0.13;;;7.80;99.90;;;;;;5080395;28;20215;-80
2023/04/03 11:55:21;;;;;;;0.10;0.10;;;7.70;99.90;;;;;;5072231;28;20232;-80
2023/04/03 11:57:53;;;;;;;2.73;2.53;;;8.00;99.90;;;;;;5072754;28;20202;-80
2023/04/03 12:00:44;;;;;;;0.10;0.10;;;7.70;99.90;;;;;;5078123;28;20206;-81
2023/04/03 12:06:13;;;;;;;0.10;0.10;;;8.00;99.90;;;;;;5080872;28;20434;-79
2023/04/03 12:08:41;;;;;;;0.07;0.07;;;7.60;99.90;;;;;;5045466;28;20185;-81
2023/04/03 12:11:10;;;;;;;0.10;0.10;;;7.80;99.90;;;;;;5082224;28;20202;-80
2023/04/03 12:13:36;;;;;;;0.10;0.10;;;8.30;99.90;;;;;;5072433;28;20195;-81
2023/04/03 12:16:04;;;;;;;0.10;0.10;;;9.00;99.90;;;;;;5089726;28;20509;-81
2023/04/03 12:19:02;;;;;;;0.07;0.07;;;8.70;99.90;;;;;;5085044;28;20203;-81
2023/04/03 12:21:33;;;;;;;0.00;0.00;;;8.60;99.90;;;;;;5083957;28;20211;-81
2023/04/03 12:24:08;;;;;;;0.10;0.10;;;8.30;99.90;;;;;;5079566;28;20302;-80
2023/04/03 12:26:37;;;;;;;0.10;0.10;;;8.20;99.90;;;;;;5075563;28;20176;-79
2023/04/03 12:29:23;;;;;;;0.10;0.10;;;8.50;99.90;;;;;;5081292;28;20206;-81
2023/04/03 12:32:27;;;;;;;0.10;0.10;;;8.40;99.90;;;;;;5084162;28;20195;-81
2023/04/03 12:35:16;;;;;;;0.10;0.10;;;8.60;99.90;;;;;;5080424;28;20186;-81
2023/04/03 12:38:16;;;;;;;0.10;0.10;;;8.60;99.90;;;;;;5079326;28;20182;-81
2023/04/03 12:40:42;;;;;;;0.10;0.10;;;8.40;99.90;;;;;;5078618;28;20210;-81
2023/04/03 12:43:43;;;;;;;0.03;0.03;;;8.70;99.90;;;;;;5083423;28;20208;-81
2023/04/03 12:46:09;;;;;;;0.00;0.00;;;8.40;99.90;;;;;;5049636;28;20216;-80
2023/04/03 12:48:49;;;;;;;0.10;0.10;;;8.20;99.90;;;;;;5081084;28;20190;-81
2023/04/03 12:51:26;;;;;;;0.10;0.10;;;8.10;99.90;;;;;;5083024;28;20203;-80
2023/04/03 12:54:00;;;;;;;0.10;0.10;;;8.50;99.90;;;;;;5075857;28;20188;-80
2023/04/03 12:56:29;;;;;;;0.10;0.10;;;8.90;99.90;;;;;;5073209;28;20266;-80
2023/04/03 12:59:12;;;;;;;0.10;0.10;;;8.60;99.90;;;;;;5077934;28;20175;-81
2023/04/03 13:01:38;;;;;;;0.10;0.10;;;8.50;99.90;;;;;;5070554;28;20265;-80
2023/04/03 13:04:04;;;;;;;0.10;0.10;;;8.70;99.90;;;;;;5070595;28;21382;-80
2023/04/03 13:06:42;;;;;;;0.30;0.30;;;8.20;99.90;;;;;;5067978;28;20195;-80
2023/04/03 13:09:29;;;;;;;0.10;0.10;;;8.10;99.90;;;;;;5066168;28;20197;-80
2023/04/03 13:12:01;;;;;;;0.10;0.10;;;8.10;99.90;;;;;;5072639;28;20208;-80
2023/04/03 13:14:28;;;;;;;0.10;0.10;;;8.10;99.90;;;;;;5079738;28;20196;-80
2023/04/03 13:16:58;;;;;;;0.00;0.00;;;8.40;99.90;;;;;;5075888;28;20258;-79